sensor_id;sensor_type;location;lat;lon;timestamp;P1;durP1;ratioP1;P2;durP2;ratioP2
47365;SDS011;33105;47.964;7.982;2022-07-29T00:02:05;7.57;;;5.75;;
47365;SDS011;33105;47.964;7.982;2022-07-29T00:05:07;6.97;;;6.35;;
47365;SDS011;33105;47.964;7.982;2022-07-29T00:08:10;13.10;;;6.10;;
47365;SDS011;33105;47.964;7.982;2022-07-29T00:11:11;7.38;;;5.90;;
47365;SDS011;33105;47.964;7.982;2022-07-29T00:14:13;7.43;;;6.00;;
47365;SDS011;33105;47.964;7.982;2022-07-29T00:17:14;8.85;;;5.65;;
47365;SDS011;33105;47.964;7.982;2022-07-29T00:20:15;12.10;;;5.72;;
47365;SDS011;33105;47.964;7.982;2022-07-29T00:23:16;7.85;;;5.88;;
47365;SDS011;33105;47.964;7.982;2022-07-29T00:26:17;11.13;;;5.95;;
47365;SDS011;33105;47.964;7.982;2022-07-29T00:29:19;7.68;;;6.30;;
47365;SDS011;33105;47.964;7.982;2022-07-29T00:32:20;7.32;;;6.30;;
47365;SDS011;33105;47.964;7.982;2022-07-29T00:35:21;9.35;;;5.80;;
47365;SDS011;33105;47.964;7.982;2022-07-29T00:38:40;7.28;;;5.82;;
47365;SDS011;33105;47.964;7.982;2022-07-29T00:41:44;9.73;;;6.05;;
47365;SDS011;33105;47.964;7.982;2022-07-29T00:44:46;7.63;;;5.85;;
47365;SDS011;33105;47.964;7.982;2022-07-29T00:47:47;9.05;;;6.15;;
47365;SDS011;33105;47.964;7.982;2022-07-29T00:50:49;9.43;;;5.90;;
47365;SDS011;33105;47.964;7.982;2022-07-29T00:53:50;9.27;;;5.40;;
47365;SDS011;33105;47.964;7.982;2022-07-29T00:56:51;6.72;;;5.53;;
47365;SDS011;33105;47.964;7.982;2022-07-29T00:59:53;8.57;;;6.22;;
47365;SDS011;33105;47.964;7.982;2022-07-29T01:02:55;9.38;;;6.28;;
47365;SDS011;33105;47.964;7.982;2022-07-29T01:05:56;7.00;;;5.60;;
47365;SDS011;33105;47.964;7.982;2022-07-29T01:08:57;7.60;;;6.22;;
47365;SDS011;33105;47.964;7.982;2022-07-29T01:11:59;8.20;;;6.75;;
47365;SDS011;33105;47.964;7.982;2022-07-29T01:15:01;7.57;;;5.88;;
47365;SDS011;33105;47.964;7.982;2022-07-29T01:31:45;9.02;;;5.78;;
47365;SDS011;33105;47.964;7.982;2022-07-29T01:35:04;11.93;;;6.13;;
47365;SDS011;33105;47.964;7.982;2022-07-29T01:38:12;7.10;;;5.82;;
47365;SDS011;33105;47.964;7.982;2022-07-29T01:41:18;10.85;;;5.50;;
47365;SDS011;33105;47.964;7.982;2022-07-29T01:44:41;8.65;;;5.60;;
47365;SDS011;33105;47.964;7.982;2022-07-29T01:48:16;9.60;;;5.97;;
47365;SDS011;33105;47.964;7.982;2022-07-29T01:51:24;5.95;;;5.30;;
47365;SDS011;33105;47.964;7.982;2022-07-29T01:54:45;12.35;;;6.00;;
47365;SDS011;33105;47.964;7.982;2022-07-29T01:57:52;12.68;;;5.80;;
47365;SDS011;33105;47.964;7.982;2022-07-29T02:00:55;10.15;;;5.82;;
47365;SDS011;33105;47.964;7.982;2022-07-29T02:03:58;8.85;;;6.10;;
47365;SDS011;33105;47.964;7.982;2022-07-29T02:07:04;8.52;;;5.43;;
47365;SDS011;33105;47.964;7.982;2022-07-29T02:10:07;8.32;;;6.30;;
47365;SDS011;33105;47.964;7.982;2022-07-29T02:13:11;15.15;;;6.05;;
47365;SDS011;33105;47.964;7.982;2022-07-29T02:16:14;8.18;;;6.15;;
47365;SDS011;33105;47.964;7.982;2022-07-29T02:19:18;12.80;;;6.57;;
47365;SDS011;33105;47.964;7.982;2022-07-29T02:22:21;10.30;;;6.35;;
47365;SDS011;33105;47.964;7.982;2022-07-29T02:25:24;7.97;;;6.25;;
47365;SDS011;33105;47.964;7.982;2022-07-29T02:28:27;10.00;;;5.95;;
47365;SDS011;33105;47.964;7.982;2022-07-29T02:31:33;8.45;;;5.65;;
47365;SDS011;33105;47.964;7.982;2022-07-29T02:34:35;6.13;;;5.40;;
47365;SDS011;33105;47.964;7.982;2022-07-29T02:37:38;8.43;;;5.50;;
47365;SDS011;33105;47.964;7.982;2022-07-29T02:40:41;6.47;;;5.68;;
47365;SDS011;33105;47.964;7.982;2022-07-29T02:43:45;12.15;;;6.25;;
47365;SDS011;33105;47.964;7.982;2022-07-29T02:46:53;9.90;;;6.07;;
47365;SDS011;33105;47.964;7.982;2022-07-29T02:50:04;9.50;;;5.72;;
47365;SDS011;33105;47.964;7.982;2022-07-29T02:53:17;8.35;;;5.82;;
47365;SDS011;33105;47.964;7.982;2022-07-29T02:56:23;5.95;;;5.43;;
47365;SDS011;33105;47.964;7.982;2022-07-29T02:59:28;8.57;;;5.65;;
47365;SDS011;33105;47.964;7.982;2022-07-29T03:02:34;7.13;;;5.13;;
47365;SDS011;33105;47.964;7.982;2022-07-29T03:05:38;8.75;;;5.28;;
47365;SDS011;33105;47.964;7.982;2022-07-29T03:08:40;9.18;;;5.45;;
47365;SDS011;33105;47.964;7.982;2022-07-29T03:11:43;8.90;;;5.43;;
47365;SDS011;33105;47.964;7.982;2022-07-29T03:14:45;13.27;;;5.97;;
47365;SDS011;33105;47.964;7.982;2022-07-29T03:17:47;6.50;;;5.32;;
47365;SDS011;33105;47.964;7.982;2022-07-29T03:20:49;10.88;;;5.68;;
47365;SDS011;33105;47.964;7.982;2022-07-29T03:23:50;7.63;;;5.05;;
47365;SDS011;33105;47.964;7.982;2022-07-29T03:26:51;10.77;;;4.82;;
47365;SDS011;33105;47.964;7.982;2022-07-29T03:29:53;9.20;;;5.18;;
47365;SDS011;33105;47.964;7.982;2022-07-29T03:32:54;5.60;;;4.80;;
47365;SDS011;33105;47.964;7.982;2022-07-29T03:35:55;9.52;;;5.03;;
47365;SDS011;33105;47.964;7.982;2022-07-29T03:38:57;8.70;;;4.80;;
47365;SDS011;33105;47.964;7.982;2022-07-29T03:41:58;6.13;;;4.68;;
47365;SDS011;33105;47.964;7.982;2022-07-29T03:45:03;6.38;;;4.93;;
47365;SDS011;33105;47.964;7.982;2022-07-29T03:48:08;6.97;;;4.53;;
47365;SDS011;33105;47.964;7.982;2022-07-29T03:51:13;5.93;;;4.70;;
47365;SDS011;33105;47.964;7.982;2022-07-29T03:54:14;5.35;;;4.53;;
47365;SDS011;33105;47.964;7.982;2022-07-29T03:57:16;8.55;;;5.00;;
47365;SDS011;33105;47.964;7.982;2022-07-29T04:00:21;6.15;;;4.57;;
47365;SDS011;33105;47.964;7.982;2022-07-29T04:03:24;5.40;;;4.90;;
47365;SDS011;33105;47.964;7.982;2022-07-29T04:06:26;5.18;;;4.63;;
47365;SDS011;33105;47.964;7.982;2022-07-29T04:09:27;6.53;;;4.30;;
47365;SDS011;33105;47.964;7.982;2022-07-29T04:12:28;7.28;;;4.78;;
47365;SDS011;33105;47.964;7.982;2022-07-29T04:15:30;7.75;;;5.53;;
47365;SDS011;33105;47.964;7.982;2022-07-29T04:18:31;6.43;;;4.95;;
47365;SDS011;33105;47.964;7.982;2022-07-29T04:21:36;8.15;;;4.70;;
47365;SDS011;33105;47.964;7.982;2022-07-29T04:24:38;9.15;;;5.15;;
47365;SDS011;33105;47.964;7.982;2022-07-29T04:27:40;7.63;;;5.15;;
47365;SDS011;33105;47.964;7.982;2022-07-29T04:31:00;11.60;;;5.07;;
47365;SDS011;33105;47.964;7.982;2022-07-29T04:34:02;6.93;;;5.07;;
47365;SDS011;33105;47.964;7.982;2022-07-29T04:37:03;9.40;;;4.80;;
47365;SDS011;33105;47.964;7.982;2022-07-29T04:40:04;5.05;;;4.47;;
47365;SDS011;33105;47.964;7.982;2022-07-29T04:43:06;9.88;;;4.55;;
47365;SDS011;33105;47.964;7.982;2022-07-29T04:46:07;7.22;;;5.00;;
47365;SDS011;33105;47.964;7.982;2022-07-29T04:49:08;9.20;;;4.78;;
47365;SDS011;33105;47.964;7.982;2022-07-29T04:52:10;6.13;;;4.47;;
47365;SDS011;33105;47.964;7.982;2022-07-29T04:55:11;6.90;;;4.47;;
47365;SDS011;33105;47.964;7.982;2022-07-29T04:58:12;7.63;;;4.43;;
47365;SDS011;33105;47.964;7.982;2022-07-29T05:01:13;7.35;;;4.55;;
47365;SDS011;33105;47.964;7.982;2022-07-29T05:04:15;10.52;;;5.30;;
47365;SDS011;33105;47.964;7.982;2022-07-29T05:07:16;6.30;;;4.40;;
47365;SDS011;33105;47.964;7.982;2022-07-29T05:10:17;9.73;;;4.63;;
47365;SDS011;33105;47.964;7.982;2022-07-29T05:13:18;5.72;;;4.10;;
47365;SDS011;33105;47.964;7.982;2022-07-29T05:16:19;7.25;;;4.75;;
47365;SDS011;33105;47.964;7.982;2022-07-29T05:19:22;10.60;;;5.00;;
47365;SDS011;33105;47.964;7.982;2022-07-29T05:22:23;6.35;;;4.38;;
47365;SDS011;33105;47.964;7.982;2022-07-29T05:25:24;6.80;;;5.10;;
47365;SDS011;33105;47.964;7.982;2022-07-29T05:28:26;8.57;;;6.00;;
47365;SDS011;33105;47.964;7.982;2022-07-29T05:31:28;8.23;;;5.45;;
47365;SDS011;33105;47.964;7.982;2022-07-29T05:34:29;5.45;;;4.35;;
47365;SDS011;33105;47.964;7.982;2022-07-29T05:37:30;12.07;;;4.93;;
47365;SDS011;33105;47.964;7.982;2022-07-29T05:40:31;6.95;;;4.35;;
47365;SDS011;33105;47.964;7.982;2022-07-29T05:43:33;5.35;;;4.15;;
47365;SDS011;33105;47.964;7.982;2022-07-29T05:46:34;9.07;;;4.78;;
47365;SDS011;33105;47.964;7.982;2022-07-29T05:49:35;5.43;;;4.03;;
47365;SDS011;33105;47.964;7.982;2022-07-29T05:52:36;5.13;;;4.35;;
47365;SDS011;33105;47.964;7.982;2022-07-29T05:55:37;8.25;;;4.90;;
47365;SDS011;33105;47.964;7.982;2022-07-29T05:58:38;7.97;;;4.95;;
47365;SDS011;33105;47.964;7.982;2022-07-29T06:01:39;5.90;;;4.60;;
47365;SDS011;33105;47.964;7.982;2022-07-29T06:04:42;8.07;;;5.18;;
47365;SDS011;33105;47.964;7.982;2022-07-29T06:07:43;7.18;;;4.88;;
47365;SDS011;33105;47.964;7.982;2022-07-29T06:10:45;5.47;;;4.30;;
47365;SDS011;33105;47.964;7.982;2022-07-29T06:13:46;6.70;;;5.22;;
47365;SDS011;33105;47.964;7.982;2022-07-29T06:16:48;10.35;;;4.72;;
47365;SDS011;33105;47.964;7.982;2022-07-29T06:19:49;6.32;;;4.10;;
47365;SDS011;33105;47.964;7.982;2022-07-29T06:22:50;5.97;;;4.72;;
47365;SDS011;33105;47.964;7.982;2022-07-29T06:25:51;7.43;;;5.30;;
47365;SDS011;33105;47.964;7.982;2022-07-29T06:28:52;7.30;;;4.20;;
47365;SDS011;33105;47.964;7.982;2022-07-29T06:31:53;9.20;;;4.22;;
47365;SDS011;33105;47.964;7.982;2022-07-29T06:34:55;6.07;;;3.70;;
47365;SDS011;33105;47.964;7.982;2022-07-29T06:37:56;10.32;;;3.55;;
47365;SDS011;33105;47.964;7.982;2022-07-29T06:40:57;8.57;;;3.80;;
47365;SDS011;33105;47.964;7.982;2022-07-29T06:44:02;6.13;;;3.65;;
47365;SDS011;33105;47.964;7.982;2022-07-29T06:47:05;5.75;;;3.25;;
47365;SDS011;33105;47.964;7.982;2022-07-29T06:50:06;5.90;;;3.75;;
47365;SDS011;33105;47.964;7.982;2022-07-29T06:53:08;5.68;;;3.88;;
47365;SDS011;33105;47.964;7.982;2022-07-29T06:56:09;14.32;;;4.22;;
47365;SDS011;33105;47.964;7.982;2022-07-29T06:59:11;5.32;;;3.90;;
47365;SDS011;33105;47.964;7.982;2022-07-29T07:02:13;7.28;;;4.07;;
47365;SDS011;33105;47.964;7.982;2022-07-29T07:05:14;6.75;;;3.90;;
47365;SDS011;33105;47.964;7.982;2022-07-29T07:08:15;7.30;;;4.45;;
47365;SDS011;33105;47.964;7.982;2022-07-29T07:11:16;9.50;;;4.80;;
47365;SDS011;33105;47.964;7.982;2022-07-29T07:14:17;5.15;;;4.18;;
47365;SDS011;33105;47.964;7.982;2022-07-29T07:17:19;7.72;;;3.80;;
47365;SDS011;33105;47.964;7.982;2022-07-29T07:20:21;6.65;;;3.92;;
47365;SDS011;33105;47.964;7.982;2022-07-29T07:23:22;8.80;;;3.75;;
47365;SDS011;33105;47.964;7.982;2022-07-29T07:26:23;8.02;;;3.72;;
47365;SDS011;33105;47.964;7.982;2022-07-29T07:29:24;6.03;;;3.80;;
47365;SDS011;33105;47.964;7.982;2022-07-29T07:32:26;6.38;;;3.75;;
47365;SDS011;33105;47.964;7.982;2022-07-29T07:35:27;7.97;;;3.42;;
47365;SDS011;33105;47.964;7.982;2022-07-29T07:38:29;8.65;;;3.63;;
47365;SDS011;33105;47.964;7.982;2022-07-29T07:41:30;6.53;;;3.85;;
47365;SDS011;33105;47.964;7.982;2022-07-29T07:44:31;6.03;;;3.50;;
47365;SDS011;33105;47.964;7.982;2022-07-29T07:47:32;7.93;;;3.60;;
47365;SDS011;33105;47.964;7.982;2022-07-29T07:50:33;9.10;;;3.60;;
47365;SDS011;33105;47.964;7.982;2022-07-29T07:53:34;4.57;;;3.40;;
47365;SDS011;33105;47.964;7.982;2022-07-29T07:56:36;4.13;;;3.72;;
47365;SDS011;33105;47.964;7.982;2022-07-29T07:59:37;7.13;;;3.92;;
47365;SDS011;33105;47.964;7.982;2022-07-29T08:02:38;9.15;;;3.92;;
47365;SDS011;33105;47.964;7.982;2022-07-29T08:05:40;6.55;;;3.70;;
47365;SDS011;33105;47.964;7.982;2022-07-29T08:08:41;8.35;;;4.25;;
47365;SDS011;33105;47.964;7.982;2022-07-29T08:11:42;6.88;;;3.67;;
47365;SDS011;33105;47.964;7.982;2022-07-29T08:14:43;7.20;;;4.50;;
47365;SDS011;33105;47.964;7.982;2022-07-29T08:17:45;8.23;;;4.32;;
47365;SDS011;33105;47.964;7.982;2022-07-29T08:20:46;7.95;;;4.60;;
47365;SDS011;33105;47.964;7.982;2022-07-29T08:23:47;8.40;;;4.20;;
47365;SDS011;33105;47.964;7.982;2022-07-29T08:26:53;12.27;;;4.25;;
47365;SDS011;33105;47.964;7.982;2022-07-29T08:29:54;8.68;;;4.13;;
47365;SDS011;33105;47.964;7.982;2022-07-29T08:32:56;7.75;;;4.13;;
47365;SDS011;33105;47.964;7.982;2022-07-29T08:35:57;8.48;;;4.07;;
47365;SDS011;33105;47.964;7.982;2022-07-29T08:38:59;7.38;;;4.38;;
47365;SDS011;33105;47.964;7.982;2022-07-29T08:42:00;7.47;;;4.85;;
47365;SDS011;33105;47.964;7.982;2022-07-29T08:45:02;7.60;;;3.85;;
47365;SDS011;33105;47.964;7.982;2022-07-29T08:48:04;13.80;;;4.45;;
47365;SDS011;33105;47.964;7.982;2022-07-29T08:51:05;7.85;;;3.80;;
47365;SDS011;33105;47.964;7.982;2022-07-29T08:54:08;7.10;;;3.30;;
47365;SDS011;33105;47.964;7.982;2022-07-29T08:57:12;12.57;;;3.55;;
47365;SDS011;33105;47.964;7.982;2022-07-29T09:00:15;7.07;;;3.20;;
47365;SDS011;33105;47.964;7.982;2022-07-29T09:03:19;15.98;;;3.83;;
47365;SDS011;33105;47.964;7.982;2022-07-29T09:06:23;13.60;;;4.00;;
47365;SDS011;33105;47.964;7.982;2022-07-29T09:09:28;17.40;;;3.75;;
47365;SDS011;33105;47.964;7.982;2022-07-29T09:12:29;15.75;;;3.47;;
47365;SDS011;33105;47.964;7.982;2022-07-29T09:15:31;15.05;;;3.38;;
47365;SDS011;33105;47.964;7.982;2022-07-29T09:18:33;7.03;;;3.15;;
47365;SDS011;33105;47.964;7.982;2022-07-29T09:21:40;9.35;;;3.10;;
47365;SDS011;33105;47.964;7.982;2022-07-29T09:25:00;9.93;;;3.67;;
47365;SDS011;33105;47.964;7.982;2022-07-29T09:28:10;8.43;;;3.10;;
47365;SDS011;33105;47.964;7.982;2022-07-29T09:31:13;7.03;;;3.05;;
47365;SDS011;33105;47.964;7.982;2022-07-29T09:34:16;7.65;;;2.90;;
47365;SDS011;33105;47.964;7.982;2022-07-29T09:37:28;29.70;;;4.10;;
47365;SDS011;33105;47.964;7.982;2022-07-29T09:40:29;31.40;;;4.00;;
47365;SDS011;33105;47.964;7.982;2022-07-29T09:43:30;26.77;;;4.15;;
47365;SDS011;33105;47.964;7.982;2022-07-29T09:46:32;7.00;;;2.80;;
47365;SDS011;33105;47.964;7.982;2022-07-29T09:49:33;10.43;;;2.85;;
47365;SDS011;33105;47.964;7.982;2022-07-29T09:52:55;4.95;;;2.80;;
47365;SDS011;33105;47.964;7.982;2022-07-29T09:55:56;3.30;;;2.55;;
47365;SDS011;33105;47.964;7.982;2022-07-29T09:59:06;5.93;;;2.88;;
47365;SDS011;33105;47.964;7.982;2022-07-29T10:02:12;6.43;;;3.08;;
47365;SDS011;33105;47.964;7.982;2022-07-29T10:05:21;6.00;;;3.03;;
47365;SDS011;33105;47.964;7.982;2022-07-29T10:08:26;6.32;;;2.53;;
47365;SDS011;33105;47.964;7.982;2022-07-29T10:11:27;5.75;;;3.03;;
47365;SDS011;33105;47.964;7.982;2022-07-29T10:14:29;9.25;;;3.05;;
47365;SDS011;33105;47.964;7.982;2022-07-29T10:17:32;6.05;;;2.95;;
47365;SDS011;33105;47.964;7.982;2022-07-29T10:20:34;8.80;;;3.47;;
47365;SDS011;33105;47.964;7.982;2022-07-29T10:23:35;9.90;;;3.20;;
47365;SDS011;33105;47.964;7.982;2022-07-29T10:26:38;7.32;;;3.13;;
47365;SDS011;33105;47.964;7.982;2022-07-29T10:29:41;7.82;;;3.08;;
47365;SDS011;33105;47.964;7.982;2022-07-29T10:32:51;6.75;;;3.10;;
47365;SDS011;33105;47.964;7.982;2022-07-29T10:42:43;6.05;;;2.88;;
47365;SDS011;33105;47.964;7.982;2022-07-29T10:45:48;7.82;;;2.53;;
47365;SDS011;33105;47.964;7.982;2022-07-29T10:49:17;7.53;;;2.38;;
47365;SDS011;33105;47.964;7.982;2022-07-29T10:52:18;10.05;;;2.70;;
47365;SDS011;33105;47.964;7.982;2022-07-29T10:55:35;7.28;;;2.50;;
47365;SDS011;33105;47.964;7.982;2022-07-29T10:58:39;6.50;;;2.47;;
47365;SDS011;33105;47.964;7.982;2022-07-29T11:01:40;4.75;;;2.40;;
47365;SDS011;33105;47.964;7.982;2022-07-29T11:20:58;6.57;;;2.00;;
47365;SDS011;33105;47.964;7.982;2022-07-29T11:27:30;5.70;;;2.10;;
47365;SDS011;33105;47.964;7.982;2022-07-29T11:30:58;12.32;;;2.88;;
47365;SDS011;33105;47.964;7.982;2022-07-29T11:37:24;7.00;;;2.13;;
47365;SDS011;33105;47.964;7.982;2022-07-29T11:40:26;6.97;;;2.10;;
47365;SDS011;33105;47.964;7.982;2022-07-29T11:43:45;4.18;;;2.03;;
47365;SDS011;33105;47.964;7.982;2022-07-29T11:46:47;3.08;;;2.13;;
47365;SDS011;33105;47.964;7.982;2022-07-29T11:49:51;7.95;;;2.63;;
47365;SDS011;33105;47.964;7.982;2022-07-29T11:52:53;7.63;;;2.30;;
47365;SDS011;33105;47.964;7.982;2022-07-29T11:55:54;8.43;;;2.55;;
47365;SDS011;33105;47.964;7.982;2022-07-29T11:59:03;5.75;;;2.05;;
47365;SDS011;33105;47.964;7.982;2022-07-29T12:02:05;3.90;;;1.98;;
47365;SDS011;33105;47.964;7.982;2022-07-29T12:05:07;7.75;;;2.78;;
47365;SDS011;33105;47.964;7.982;2022-07-29T12:08:10;21.00;;;3.15;;
47365;SDS011;33105;47.964;7.982;2022-07-29T12:11:15;14.15;;;2.53;;
47365;SDS011;33105;47.964;7.982;2022-07-29T12:14:24;13.73;;;2.55;;
47365;SDS011;33105;47.964;7.982;2022-07-29T12:17:33;7.10;;;2.30;;
47365;SDS011;33105;47.964;7.982;2022-07-29T12:20:35;9.30;;;2.05;;
47365;SDS011;33105;47.964;7.982;2022-07-29T12:23:36;7.55;;;2.15;;
47365;SDS011;33105;47.964;7.982;2022-07-29T12:26:48;7.38;;;1.90;;
47365;SDS011;33105;47.964;7.982;2022-07-29T12:30:00;8.65;;;2.15;;
47365;SDS011;33105;47.964;7.982;2022-07-29T12:33:13;2.47;;;1.90;;
47365;SDS011;33105;47.964;7.982;2022-07-29T12:36:16;11.60;;;2.60;;
47365;SDS011;33105;47.964;7.982;2022-07-29T12:39:17;6.38;;;2.30;;
47365;SDS011;33105;47.964;7.982;2022-07-29T12:42:19;6.10;;;1.90;;
47365;SDS011;33105;47.964;7.982;2022-07-29T12:45:28;5.28;;;2.20;;
47365;SDS011;33105;47.964;7.982;2022-07-29T12:48:36;10.30;;;2.50;;
47365;SDS011;33105;47.964;7.982;2022-07-29T12:51:39;6.57;;;2.40;;
47365;SDS011;33105;47.964;7.982;2022-07-29T12:54:46;3.40;;;2.13;;
47365;SDS011;33105;47.964;7.982;2022-07-29T12:57:48;3.15;;;2.15;;
47365;SDS011;33105;47.964;7.982;2022-07-29T13:01:07;2.85;;;1.80;;
47365;SDS011;33105;47.964;7.982;2022-07-29T13:04:26;4.00;;;2.20;;
47365;SDS011;33105;47.964;7.982;2022-07-29T13:07:30;4.32;;;2.17;;
47365;SDS011;33105;47.964;7.982;2022-07-29T13:10:35;6.43;;;2.20;;
47365;SDS011;33105;47.964;7.982;2022-07-29T13:13:49;5.03;;;1.83;;
47365;SDS011;33105;47.964;7.982;2022-07-29T13:17:05;4.15;;;2.13;;
47365;SDS011;33105;47.964;7.982;2022-07-29T13:20:07;4.45;;;1.98;;
47365;SDS011;33105;47.964;7.982;2022-07-29T13:23:15;6.35;;;2.47;;
47365;SDS011;33105;47.964;7.982;2022-07-29T13:26:16;3.85;;;2.08;;
47365;SDS011;33105;47.964;7.982;2022-07-29T13:29:20;5.10;;;1.90;;
47365;SDS011;33105;47.964;7.982;2022-07-29T13:32:21;5.38;;;2.35;;
47365;SDS011;33105;47.964;7.982;2022-07-29T13:35:23;10.02;;;2.50;;
47365;SDS011;33105;47.964;7.982;2022-07-29T13:38:24;7.95;;;2.28;;
47365;SDS011;33105;47.964;7.982;2022-07-29T13:41:25;7.50;;;2.10;;
47365;SDS011;33105;47.964;7.982;2022-07-29T13:44:27;7.35;;;2.22;;
47365;SDS011;33105;47.964;7.982;2022-07-29T13:47:28;6.53;;;1.85;;
47365;SDS011;33105;47.964;7.982;2022-07-29T13:50:30;3.75;;;1.83;;
47365;SDS011;33105;47.964;7.982;2022-07-29T13:53:31;5.95;;;2.00;;
47365;SDS011;33105;47.964;7.982;2022-07-29T13:56:33;2.90;;;1.65;;
47365;SDS011;33105;47.964;7.982;2022-07-29T13:59:34;6.97;;;1.70;;
47365;SDS011;33105;47.964;7.982;2022-07-29T14:02:36;9.25;;;1.98;;
47365;SDS011;33105;47.964;7.982;2022-07-29T14:05:39;5.43;;;1.60;;
47365;SDS011;33105;47.964;7.982;2022-07-29T14:08:40;3.83;;;1.88;;
47365;SDS011;33105;47.964;7.982;2022-07-29T14:11:41;3.15;;;1.60;;
47365;SDS011;33105;47.964;7.982;2022-07-29T14:14:42;3.90;;;1.85;;
47365;SDS011;33105;47.964;7.982;2022-07-29T14:17:43;5.13;;;1.88;;
47365;SDS011;33105;47.964;7.982;2022-07-29T14:20:44;6.85;;;1.55;;
47365;SDS011;33105;47.964;7.982;2022-07-29T14:23:46;5.93;;;1.65;;
47365;SDS011;33105;47.964;7.982;2022-07-29T14:26:47;5.28;;;1.52;;
47365;SDS011;33105;47.964;7.982;2022-07-29T14:29:48;6.47;;;1.75;;
47365;SDS011;33105;47.964;7.982;2022-07-29T14:32:49;6.18;;;1.70;;
47365;SDS011;33105;47.964;7.982;2022-07-29T14:35:51;2.65;;;1.67;;
47365;SDS011;33105;47.964;7.982;2022-07-29T14:38:52;6.60;;;1.80;;
47365;SDS011;33105;47.964;7.982;2022-07-29T14:41:53;10.88;;;2.00;;
47365;SDS011;33105;47.964;7.982;2022-07-29T14:44:54;6.63;;;2.00;;
47365;SDS011;33105;47.964;7.982;2022-07-29T14:47:55;6.13;;;1.58;;
47365;SDS011;33105;47.964;7.982;2022-07-29T14:50:56;8.68;;;1.60;;
47365;SDS011;33105;47.964;7.982;2022-07-29T14:53:59;6.20;;;1.83;;
47365;SDS011;33105;47.964;7.982;2022-07-29T14:57:00;5.50;;;1.70;;
47365;SDS011;33105;47.964;7.982;2022-07-29T15:00:03;3.78;;;1.92;;
47365;SDS011;33105;47.964;7.982;2022-07-29T15:03:05;11.13;;;2.70;;
47365;SDS011;33105;47.964;7.982;2022-07-29T15:06:09;6.90;;;1.75;;
47365;SDS011;33105;47.964;7.982;2022-07-29T15:09:11;4.53;;;1.50;;
47365;SDS011;33105;47.964;7.982;2022-07-29T15:12:12;10.07;;;1.80;;
47365;SDS011;33105;47.964;7.982;2022-07-29T15:15:14;2.78;;;1.40;;
47365;SDS011;33105;47.964;7.982;2022-07-29T15:18:15;8.10;;;1.77;;
47365;SDS011;33105;47.964;7.982;2022-07-29T15:21:16;5.28;;;1.80;;
47365;SDS011;33105;47.964;7.982;2022-07-29T15:24:17;4.80;;;1.55;;
47365;SDS011;33105;47.964;7.982;2022-07-29T15:27:19;3.22;;;1.20;;
47365;SDS011;33105;47.964;7.982;2022-07-29T15:30:20;4.40;;;1.30;;
47365;SDS011;33105;47.964;7.982;2022-07-29T15:33:22;8.98;;;1.60;;
47365;SDS011;33105;47.964;7.982;2022-07-29T15:36:23;5.68;;;1.40;;
47365;SDS011;33105;47.964;7.982;2022-07-29T15:39:24;8.25;;;1.60;;
47365;SDS011;33105;47.964;7.982;2022-07-29T15:42:25;2.97;;;1.45;;
47365;SDS011;33105;47.964;7.982;2022-07-29T15:45:26;3.20;;;1.40;;
47365;SDS011;33105;47.964;7.982;2022-07-29T15:48:28;7.25;;;1.48;;
47365;SDS011;33105;47.964;7.982;2022-07-29T15:51:30;3.67;;;1.40;;
47365;SDS011;33105;47.964;7.982;2022-07-29T15:54:32;7.22;;;1.60;;
47365;SDS011;33105;47.964;7.982;2022-07-29T15:57:33;4.68;;;1.42;;
47365;SDS011;33105;47.964;7.982;2022-07-29T16:00:34;8.75;;;1.83;;
47365;SDS011;33105;47.964;7.982;2022-07-29T16:03:36;4.95;;;1.75;;
47365;SDS011;33105;47.964;7.982;2022-07-29T16:06:37;4.10;;;1.42;;
47365;SDS011;33105;47.964;7.982;2022-07-29T16:09:38;4.57;;;1.70;;
47365;SDS011;33105;47.964;7.982;2022-07-29T16:12:39;3.10;;;1.30;;
47365;SDS011;33105;47.964;7.982;2022-07-29T16:15:40;4.82;;;1.52;;
47365;SDS011;33105;47.964;7.982;2022-07-29T16:18:41;3.40;;;1.33;;
47365;SDS011;33105;47.964;7.982;2022-07-29T16:21:42;6.50;;;1.70;;
47365;SDS011;33105;47.964;7.982;2022-07-29T16:24:44;3.67;;;1.20;;
47365;SDS011;33105;47.964;7.982;2022-07-29T16:27:45;3.55;;;1.40;;
47365;SDS011;33105;47.964;7.982;2022-07-29T16:30:46;4.72;;;1.27;;
47365;SDS011;33105;47.964;7.982;2022-07-29T16:33:53;3.85;;;1.30;;
47365;SDS011;33105;47.964;7.982;2022-07-29T16:36:55;3.42;;;1.40;;
47365;SDS011;33105;47.964;7.982;2022-07-29T16:39:56;4.90;;;1.75;;
47365;SDS011;33105;47.964;7.982;2022-07-29T16:42:57;8.82;;;1.70;;
47365;SDS011;33105;47.964;7.982;2022-07-29T16:45:59;21.75;;;1.55;;
47365;SDS011;33105;47.964;7.982;2022-07-29T16:49:01;3.70;;;1.33;;
47365;SDS011;33105;47.964;7.982;2022-07-29T16:52:02;4.63;;;1.30;;
47365;SDS011;33105;47.964;7.982;2022-07-29T16:55:03;3.97;;;1.15;;
47365;SDS011;33105;47.964;7.982;2022-07-29T16:58:05;10.88;;;1.70;;
47365;SDS011;33105;47.964;7.982;2022-07-29T17:01:07;3.97;;;1.40;;
47365;SDS011;33105;47.964;7.982;2022-07-29T17:04:09;2.00;;;1.08;;
47365;SDS011;33105;47.964;7.982;2022-07-29T17:07:11;4.68;;;1.20;;
47365;SDS011;33105;47.964;7.982;2022-07-29T17:10:12;5.68;;;1.10;;
47365;SDS011;33105;47.964;7.982;2022-07-29T17:13:14;6.22;;;1.40;;
47365;SDS011;33105;47.964;7.982;2022-07-29T17:16:15;2.97;;;1.02;;
47365;SDS011;33105;47.964;7.982;2022-07-29T17:19:16;3.28;;;1.13;;
47365;SDS011;33105;47.964;7.982;2022-07-29T17:22:17;5.60;;;1.25;;
47365;SDS011;33105;47.964;7.982;2022-07-29T17:25:18;3.70;;;1.20;;
47365;SDS011;33105;47.964;7.982;2022-07-29T17:28:20;4.03;;;1.25;;
47365;SDS011;33105;47.964;7.982;2022-07-29T17:31:21;6.95;;;1.20;;
47365;SDS011;33105;47.964;7.982;2022-07-29T17:34:22;4.85;;;1.25;;
47365;SDS011;33105;47.964;7.982;2022-07-29T17:37:24;3.75;;;1.50;;
47365;SDS011;33105;47.964;7.982;2022-07-29T17:40:27;2.95;;;1.10;;
47365;SDS011;33105;47.964;7.982;2022-07-29T17:43:28;5.18;;;1.25;;
47365;SDS011;33105;47.964;7.982;2022-07-29T17:46:29;3.55;;;1.10;;
47365;SDS011;33105;47.964;7.982;2022-07-29T17:49:30;4.13;;;1.00;;
47365;SDS011;33105;47.964;7.982;2022-07-29T17:52:32;1.67;;;1.15;;
47365;SDS011;33105;47.964;7.982;2022-07-29T17:55:33;4.05;;;1.10;;
47365;SDS011;33105;47.964;7.982;2022-07-29T17:58:34;3.80;;;1.23;;
47365;SDS011;33105;47.964;7.982;2022-07-29T18:01:36;6.47;;;1.55;;
47365;SDS011;33105;47.964;7.982;2022-07-29T18:04:39;2.75;;;1.23;;
47365;SDS011;33105;47.964;7.982;2022-07-29T18:07:40;1.95;;;1.13;;
47365;SDS011;33105;47.964;7.982;2022-07-29T18:10:42;6.68;;;1.65;;
47365;SDS011;33105;47.964;7.982;2022-07-29T18:13:44;3.67;;;1.35;;
47365;SDS011;33105;47.964;7.982;2022-07-29T18:16:46;6.07;;;1.40;;
47365;SDS011;33105;47.964;7.982;2022-07-29T18:19:47;3.38;;;1.33;;
47365;SDS011;33105;47.964;7.982;2022-07-29T18:22:48;3.13;;;1.40;;
47365;SDS011;33105;47.964;7.982;2022-07-29T18:25:50;3.40;;;1.30;;
47365;SDS011;33105;47.964;7.982;2022-07-29T18:28:51;1.63;;;1.17;;
47365;SDS011;33105;47.964;7.982;2022-07-29T18:31:52;5.03;;;1.27;;
47365;SDS011;33105;47.964;7.982;2022-07-29T18:34:53;2.10;;;1.00;;
47365;SDS011;33105;47.964;7.982;2022-07-29T18:37:54;1.67;;;1.13;;
47365;SDS011;33105;47.964;7.982;2022-07-29T18:40:55;3.28;;;1.17;;
47365;SDS011;33105;47.964;7.982;2022-07-29T18:43:57;5.15;;;1.27;;
47365;SDS011;33105;47.964;7.982;2022-07-29T18:46:58;4.93;;;1.25;;
47365;SDS011;33105;47.964;7.982;2022-07-29T18:49:59;3.00;;;1.15;;
47365;SDS011;33105;47.964;7.982;2022-07-29T18:53:01;2.65;;;1.10;;
47365;SDS011;33105;47.964;7.982;2022-07-29T18:56:03;3.78;;;1.02;;
47365;SDS011;33105;47.964;7.982;2022-07-29T18:59:04;2.03;;;1.10;;
47365;SDS011;33105;47.964;7.982;2022-07-29T19:02:06;2.97;;;1.10;;
47365;SDS011;33105;47.964;7.982;2022-07-29T19:05:08;2.03;;;1.20;;